createdAt,value
2018-04-14T00:00:00.249Z,99.90
2018-04-14T00:02:27.504Z,99.90
2018-04-14T00:04:53.961Z,99.90
2018-04-14T00:07:20.426Z,99.90
2018-04-14T00:09:46.900Z,99.90
2018-04-14T00:12:13.486Z,99.90
2018-04-14T00:14:39.917Z,99.90
2018-04-14T00:17:06.493Z,99.90
2018-04-14T00:19:32.948Z,99.90
2018-04-14T00:21:59.388Z,99.90
2018-04-14T00:24:25.877Z,99.90
2018-04-14T00:26:52.349Z,99.90
2018-04-14T00:29:18.809Z,99.90
2018-04-14T00:31:45.292Z,99.90
2018-04-14T00:34:11.766Z,99.90
2018-04-14T00:36:38.237Z,99.90
2018-04-14T00:39:06.808Z,99.90
2018-04-14T00:41:33.245Z,99.90
2018-04-14T00:43:59.684Z,99.90
2018-04-14T00:46:26.126Z,99.90
2018-04-14T00:48:52.616Z,99.90
2018-04-14T00:51:19.053Z,99.90
2018-04-14T00:53:46.427Z,99.90
2018-04-14T00:56:13.121Z,99.90
2018-04-14T00:58:39.561Z,99.90
2018-04-14T01:01:06.064Z,99.90
2018-04-14T01:03:32.509Z,99.90
2018-04-14T01:05:59.735Z,99.90
2018-04-14T01:08:26.245Z,99.90
2018-04-14T01:10:52.706Z,99.90
2018-04-14T01:13:19.268Z,99.90
2018-04-14T01:15:46.460Z,99.90
2018-04-14T01:18:12.914Z,99.90
2018-04-14T01:20:39.337Z,99.90
2018-04-14T01:23:05.820Z,99.90
2018-04-14T01:25:33.047Z,99.90
2018-04-14T01:27:59.545Z,99.90
2018-04-14T01:30:26.045Z,99.90
2018-04-14T01:32:53.465Z,99.90
2018-04-14T01:35:19.912Z,99.90
2018-04-14T01:37:46.380Z,99.90
2018-04-14T01:40:12.783Z,99.90
2018-04-14T01:42:39.573Z,99.90
2018-04-14T01:45:06.032Z,99.90
2018-04-14T01:47:32.456Z,99.90
2018-04-14T01:49:58.957Z,99.90
2018-04-14T01:52:25.396Z,99.90
2018-04-14T01:54:51.877Z,99.90
2018-04-14T01:57:18.299Z,99.90
2018-04-14T01:59:44.759Z,99.90
2018-04-14T02:02:12.001Z,99.90
2018-04-14T02:04:38.480Z,99.90
2018-04-14T02:07:05.130Z,99.90
2018-04-14T02:09:31.609Z,99.90
2018-04-14T02:11:58.128Z,99.90
2018-04-14T02:14:25.397Z,99.90
2018-04-14T02:16:51.853Z,99.90
2018-04-14T02:19:19.034Z,99.90
2018-04-14T02:21:45.505Z,99.90
2018-04-14T02:24:11.949Z,99.90
2018-04-14T02:26:38.360Z,99.90
2018-04-14T02:29:04.817Z,99.90
2018-04-14T02:31:31.266Z,99.90
2018-04-14T02:33:58.522Z,99.90
2018-04-14T02:36:25.690Z,99.90
2018-04-14T02:38:52.106Z,99.90
2018-04-14T02:41:19.333Z,99.90
2018-04-14T02:43:45.766Z,99.90
2018-04-14T02:46:12.305Z,99.90
2018-04-14T02:48:38.716Z,99.90
2018-04-14T02:51:05.234Z,99.90
2018-04-14T02:53:31.679Z,99.90
2018-04-14T02:55:58.245Z,99.90
2018-04-14T02:58:25.508Z,99.90
2018-04-14T03:00:52.691Z,99.90
2018-04-14T03:03:19.147Z,99.90
2018-04-14T03:05:45.643Z,99.90
2018-04-14T03:08:12.063Z,99.90
2018-04-14T03:10:39.331Z,99.90
2018-04-14T03:13:05.780Z,99.90
2018-04-14T03:15:32.245Z,99.90
2018-04-14T03:17:58.661Z,99.90
2018-04-14T03:20:25.089Z,99.90
2018-04-14T03:22:51.537Z,99.90
2018-04-14T03:25:17.997Z,99.90
2018-04-14T03:27:44.579Z,99.90
2018-04-14T03:30:11.018Z,99.90
2018-04-14T03:32:37.445Z,99.90
2018-04-14T03:35:03.866Z,99.90
2018-04-14T03:37:30.395Z,99.90
2018-04-14T03:39:56.835Z,99.90
2018-04-14T03:42:23.282Z,99.90
2018-04-14T03:44:49.741Z,99.90
2018-04-14T03:47:16.178Z,99.90
2018-04-14T03:49:42.683Z,99.90
2018-04-14T03:52:09.157Z,99.90
2018-04-14T03:54:35.669Z,99.90
2018-04-14T03:57:02.243Z,99.90
2018-04-14T03:59:28.677Z,99.90
2018-04-14T04:01:55.123Z,99.90
2018-04-14T04:04:22.326Z,99.90
2018-04-14T04:06:48.764Z,99.90
2018-04-14T04:09:15.214Z,99.90
2018-04-14T04:11:41.641Z,99.90
2018-04-14T04:17:04.809Z,99.90
2018-04-14T04:19:43.569Z,99.90
2018-04-14T04:22:22.896Z,99.90
2018-04-14T04:30:52.796Z,99.90
2018-04-14T04:33:19.281Z,99.90
2018-04-14T04:35:46.506Z,99.90
2018-04-14T04:38:13.009Z,99.90
2018-04-14T04:40:39.485Z,99.90
2018-04-14T04:43:06.679Z,99.90
2018-04-14T04:45:33.176Z,99.90
2018-04-14T04:47:59.663Z,99.90
2018-04-14T04:50:26.097Z,99.90
2018-04-14T04:52:59.588Z,99.90
2018-04-14T04:55:26.063Z,99.90
2018-04-14T04:57:52.561Z,99.90
2018-04-14T05:00:18.994Z,99.90
2018-04-14T05:02:45.704Z,99.90
2018-04-14T05:05:12.884Z,99.90
2018-04-14T05:07:39.422Z,99.90
2018-04-14T05:10:05.865Z,99.90
2018-04-14T05:12:32.349Z,99.90
2018-04-14T05:14:59.579Z,99.90
2018-04-14T05:17:26.023Z,99.90
2018-04-14T05:19:52.518Z,99.90
2018-04-14T05:22:18.973Z,99.90
2018-04-14T05:24:45.464Z,99.90
2018-04-14T05:27:11.949Z,99.90
2018-04-14T05:29:38.397Z,99.90
2018-04-14T05:32:05.694Z,99.90
2018-04-14T05:34:32.301Z,99.90
2018-04-14T05:36:59.535Z,99.90
2018-04-14T05:39:25.973Z,99.90
2018-04-14T05:41:53.152Z,99.90
2018-04-14T05:44:19.665Z,99.90
2018-04-14T05:46:46.849Z,99.90
2018-04-14T05:49:13.384Z,99.90
2018-04-14T05:51:40.281Z,99.90
2018-04-14T05:54:06.737Z,99.90
2018-04-14T05:56:33.949Z,99.90
2018-04-14T05:59:00.462Z,99.90
2018-04-14T06:01:26.996Z,99.90
2018-04-14T06:03:53.598Z,99.90
2018-04-14T06:06:20.088Z,99.90
2018-04-14T06:08:46.601Z,99.90
2018-04-14T06:11:13.281Z,99.90
2018-04-14T06:13:39.795Z,99.90
2018-04-14T06:16:06.386Z,99.90
2018-04-14T06:18:32.937Z,99.90
2018-04-14T06:20:59.414Z,99.90
2018-04-14T06:23:25.949Z,99.90
2018-04-14T06:25:52.502Z,99.90
2018-04-14T06:28:19.726Z,94.90
2018-04-14T06:30:46.177Z,94.90
2018-04-14T06:33:12.686Z,95.60
2018-04-14T06:35:39.190Z,92.60
2018-04-14T06:38:05.692Z,91.80
2018-04-14T06:40:32.903Z,90.90
2018-04-14T06:42:59.411Z,90.90
2018-04-14T06:45:25.871Z,88.30
2018-04-14T06:47:52.375Z,81.40
2018-04-14T06:50:19.234Z,76.20
2018-04-14T06:52:45.696Z,75.80
2018-04-14T06:55:12.223Z,75.40
2018-04-14T06:57:38.681Z,77.00
2018-04-14T07:00:05.895Z,76.00
2018-04-14T07:02:32.330Z,75.90
2018-04-14T07:04:58.897Z,74.90
2018-04-14T07:07:25.463Z,73.20
2018-04-14T07:09:51.981Z,68.00
2018-04-14T07:12:19.252Z,61.60
2018-04-14T07:14:45.712Z,61.50
2018-04-14T07:17:14.103Z,60.10
2018-04-14T07:19:40.732Z,58.70
2018-04-14T07:25:03.932Z,57.10
2018-04-14T07:27:31.895Z,57.20
2018-04-14T07:29:58.297Z,56.90
2018-04-14T07:32:24.806Z,57.50
2018-04-14T07:34:51.223Z,54.00
2018-04-14T07:37:18.421Z,51.50
2018-04-14T07:39:44.915Z,51.30
2018-04-14T07:42:12.146Z,49.40
2018-04-14T07:44:38.590Z,49.30
2018-04-14T07:47:05.190Z,48.60
2018-04-14T07:49:31.683Z,48.10
2018-04-14T07:51:58.144Z,49.60
2018-04-14T07:54:24.604Z,49.00
2018-04-14T07:56:51.951Z,46.40
2018-04-14T07:59:18.494Z,46.60
2018-04-14T08:01:44.965Z,46.30
2018-04-14T08:04:12.264Z,46.20
2018-04-14T08:06:38.961Z,46.80
2018-04-14T08:09:05.476Z,45.00
2018-04-14T08:11:31.945Z,45.50
2018-04-14T08:13:58.408Z,45.10
2018-04-14T08:16:25.613Z,47.70
2018-04-14T08:18:52.857Z,48.70
2018-04-14T08:21:20.076Z,49.30
2018-04-14T08:23:46.588Z,49.30
2018-04-14T08:26:12.998Z,48.20
2018-04-14T08:28:39.538Z,48.40
2018-04-14T08:31:05.941Z,48.50
2018-04-14T08:33:33.136Z,49.60
2018-04-14T08:35:59.613Z,49.60
2018-04-14T08:38:26.128Z,50.30
2018-04-14T08:40:52.609Z,47.60
2018-04-14T08:43:19.949Z,49.80
2018-04-14T08:45:47.137Z,49.20
2018-04-14T08:48:13.571Z,49.20
2018-04-14T08:50:40.061Z,47.30
2018-04-14T08:53:07.299Z,47.60
2018-04-14T08:55:33.898Z,47.50
2018-04-14T08:58:00.384Z,48.80
2018-04-14T09:00:27.709Z,50.80
2018-04-14T09:02:54.273Z,50.80
2018-04-14T09:05:21.606Z,49.80
2018-04-14T09:07:48.102Z,49.70
2018-04-14T09:10:14.591Z,50.30
2018-04-14T09:12:41.063Z,51.80
2018-04-14T09:15:09.420Z,51.20
2018-04-14T09:17:36.669Z,50.40
2018-04-14T09:20:03.208Z,50.40
2018-04-14T09:22:30.793Z,50.50
2018-04-14T09:24:57.578Z,50.50
2018-04-14T09:27:24.092Z,51.50
2018-04-14T09:29:51.578Z,51.40
2018-04-14T09:32:18.840Z,51.20
2018-04-14T09:34:46.041Z,50.40
2018-04-14T09:37:12.650Z,50.40
2018-04-14T09:39:39.841Z,50.60
2018-04-14T09:42:07.035Z,50.60
2018-04-14T09:44:35.406Z,51.90
2018-04-14T09:47:05.506Z,51.90
2018-04-14T09:49:34.071Z,52.80
2018-04-14T09:52:02.223Z,54.90
2018-04-14T09:54:30.315Z,55.80
2018-04-14T09:56:56.820Z,55.10
2018-04-14T10:02:03.169Z,54.20
2018-04-14T10:04:29.906Z,51.70
2018-04-14T10:06:58.105Z,52.40
2018-04-14T10:09:24.603Z,52.40
2018-04-14T10:11:51.129Z,51.90
2018-04-14T10:14:17.647Z,54.00
2018-04-14T10:16:44.146Z,53.20
2018-04-14T10:19:10.687Z,54.20
2018-04-14T10:21:37.240Z,49.60
2018-04-14T10:24:03.729Z,49.70
2018-04-14T10:26:30.998Z,53.70
2018-04-14T10:28:57.585Z,53.60
2018-04-14T10:31:24.102Z,50.90
2018-04-14T10:33:50.699Z,50.20
2018-04-14T10:36:17.993Z,51.00
2018-04-14T10:38:44.624Z,51.00
2018-04-14T10:41:11.211Z,51.90
2018-04-14T10:43:37.758Z,52.00
2018-04-14T10:46:04.232Z,50.80
2018-04-14T10:48:30.697Z,50.40
2018-04-14T10:50:57.181Z,48.80
2018-04-14T10:53:24.505Z,50.70
2018-04-14T10:55:51.067Z,50.70
2018-04-14T10:58:18.281Z,48.30
2018-04-14T11:00:45.014Z,48.30
2018-04-14T11:03:11.770Z,48.70
2018-04-14T11:05:38.224Z,48.40
2018-04-14T11:08:05.482Z,46.60
2018-04-14T11:10:32.010Z,46.60
2018-04-14T11:12:59.378Z,45.40
2018-04-14T11:15:26.440Z,45.40
2018-04-14T11:17:52.987Z,47.80
2018-04-14T11:20:19.425Z,46.60
2018-04-14T11:22:45.939Z,47.90
2018-04-14T11:25:12.417Z,47.90
2018-04-14T11:27:39.041Z,48.30
2018-04-14T11:30:05.565Z,47.60
2018-04-14T11:32:31.994Z,49.90
2018-04-14T11:34:58.469Z,48.50
2018-04-14T11:37:24.928Z,48.60
2018-04-14T11:39:52.161Z,48.00
2018-04-14T11:42:18.701Z,47.50
2018-04-14T11:44:45.166Z,47.50
2018-04-14T11:47:11.637Z,46.40
2018-04-14T11:49:38.177Z,45.00
2018-04-14T11:52:04.735Z,48.90
2018-04-14T11:54:31.296Z,46.90
2018-04-14T11:56:57.821Z,45.60
2018-04-14T11:59:25.062Z,46.70
2018-04-14T12:01:52.447Z,51.90
2018-04-14T12:04:18.894Z,51.70
2018-04-14T12:06:45.466Z,51.20
2018-04-14T12:09:13.676Z,50.60
2018-04-14T12:11:40.950Z,48.40
2018-04-14T12:14:07.472Z,48.30
2018-04-14T12:16:34.850Z,46.70
2018-04-14T12:19:01.376Z,46.60
2018-04-14T12:21:27.989Z,47.80
2018-04-14T12:23:55.228Z,45.00
2018-04-14T12:26:22.586Z,45.90
2018-04-14T12:28:49.268Z,45.80
2018-04-14T12:31:15.711Z,46.20
2018-04-14T12:33:42.208Z,46.70
2018-04-14T12:36:09.410Z,47.10
2018-04-14T12:38:35.917Z,47.30
2018-04-14T12:41:02.342Z,49.60
2018-04-14T12:43:28.880Z,51.40
2018-04-14T12:45:55.354Z,49.80
2018-04-14T12:48:21.961Z,49.30
2018-04-14T12:50:48.425Z,47.90
2018-04-14T12:53:15.021Z,46.30
2018-04-14T12:55:41.453Z,45.80
2018-04-14T12:58:11.582Z,42.90
2018-04-14T13:00:38.104Z,41.10
2018-04-14T13:03:05.469Z,42.50
2018-04-14T13:05:31.958Z,42.40
2018-04-14T13:07:59.153Z,45.90
2018-04-14T13:10:28.554Z,45.70
2018-04-14T13:12:55.157Z,45.20
2018-04-14T13:15:22.529Z,44.00
2018-04-14T13:17:49.173Z,44.00
2018-04-14T13:20:15.679Z,43.00
2018-04-14T13:22:42.886Z,41.60
2018-04-14T13:25:09.459Z,41.70
2018-04-14T13:27:35.917Z,38.30
2018-04-14T13:30:02.397Z,37.00
2018-04-14T13:32:29.036Z,37.50
2018-04-14T13:37:51.546Z,39.80
2018-04-14T13:40:18.806Z,43.90
2018-04-14T13:42:45.290Z,43.90
2018-04-14T13:45:11.779Z,43.50
2018-04-14T13:47:38.307Z,42.60
2018-04-14T13:50:04.920Z,40.70
2018-04-14T13:52:32.234Z,37.50
2018-04-14T13:54:58.747Z,37.40
2018-04-14T13:57:25.328Z,35.80
2018-04-14T13:59:51.930Z,33.30
2018-04-14T14:02:18.520Z,33.20
2018-04-14T14:04:45.834Z,34.40
2018-04-14T14:07:12.305Z,34.30
2018-04-14T14:09:39.533Z,35.10
2018-04-14T14:12:06.551Z,35.00
2018-04-14T14:14:35.605Z,38.80
2018-04-14T14:17:02.077Z,38.70
2018-04-14T14:19:41.690Z,39.00
2018-04-14T14:22:08.825Z,38.60
2018-04-14T14:24:36.030Z,37.80
2018-04-14T14:27:02.625Z,37.80
2018-04-14T14:29:29.145Z,35.80
2018-04-14T14:31:56.383Z,34.40
2018-04-14T14:34:23.033Z,34.40
2018-04-14T14:36:50.235Z,36.10
2018-04-14T14:39:16.679Z,36.10
2018-04-14T14:41:43.338Z,37.80
2018-04-14T14:44:10.602Z,36.80
2018-04-14T14:46:37.082Z,36.80
2018-04-14T14:49:03.526Z,36.70
2018-04-14T14:51:30.024Z,34.40
2018-04-14T14:53:57.212Z,35.30
2018-04-14T14:56:23.710Z,35.20
2018-04-14T14:58:50.912Z,34.00
2018-04-14T15:01:17.560Z,34.00
2018-04-14T15:03:44.195Z,33.90
2018-04-14T15:06:10.741Z,33.70
2018-04-14T15:08:37.293Z,33.10
2018-04-14T15:11:04.612Z,35.60
2018-04-14T15:13:31.252Z,35.60
2018-04-14T15:15:57.716Z,36.90
2018-04-14T15:18:31.412Z,37.50
2018-04-14T15:20:57.871Z,38.30
2018-04-14T15:23:24.370Z,37.30
2018-04-14T15:25:50.835Z,37.40
2018-04-14T15:28:18.075Z,34.80
2018-04-14T15:30:45.300Z,36.40
2018-04-14T15:33:11.837Z,36.40
2018-04-14T15:35:38.414Z,39.90
2018-04-14T15:38:04.929Z,41.20
2018-04-14T15:40:32.921Z,41.00
2018-04-14T15:42:59.787Z,41.00
2018-04-14T15:45:26.336Z,40.50
2018-04-14T15:47:52.918Z,42.50
2018-04-14T15:50:20.221Z,40.00
2018-04-14T15:52:46.705Z,39.80
2018-04-14T15:55:14.054Z,40.00
2018-04-14T15:57:40.553Z,40.00
2018-04-14T16:00:07.040Z,45.10
2018-04-14T16:02:33.599Z,46.30
2018-04-14T16:05:00.103Z,46.30
2018-04-14T16:07:27.369Z,48.10
2018-04-14T16:09:54.685Z,48.00
2018-04-14T16:12:21.221Z,48.00
2018-04-14T16:14:47.761Z,47.80
2018-04-14T16:17:14.221Z,46.60
2018-04-14T16:22:51.396Z,49.80
2018-04-14T16:25:17.970Z,46.60
2018-04-14T16:27:45.316Z,49.10
2018-04-14T16:30:12.645Z,48.10
2018-04-14T16:32:39.148Z,48.00
2018-04-14T16:35:05.597Z,48.80
2018-04-14T16:37:32.095Z,47.90
2018-04-14T16:39:58.518Z,52.60
2018-04-14T16:42:25.062Z,50.00
2018-04-14T16:44:51.542Z,51.00
2018-04-14T16:47:18.129Z,51.70
2018-04-14T16:49:45.082Z,52.30
2018-04-14T16:52:13.667Z,52.00
2018-04-14T16:54:40.219Z,52.20
2018-04-14T16:57:06.813Z,52.40
2018-04-14T16:59:34.090Z,51.50
2018-04-14T17:02:00.622Z,51.50
2018-04-14T17:04:27.134Z,51.20
2018-04-14T17:06:53.593Z,50.40
2018-04-14T17:09:20.211Z,51.50
2018-04-14T17:11:46.699Z,53.00
2018-04-14T17:14:13.200Z,53.00
2018-04-14T17:16:41.684Z,53.80
2018-04-14T17:19:08.183Z,52.50
2018-04-14T17:21:35.388Z,51.90
2018-04-14T17:24:01.991Z,51.80
2018-04-14T17:26:28.509Z,51.70
2018-04-14T17:28:55.857Z,53.00
2018-04-14T17:31:25.273Z,52.90
2018-04-14T17:33:52.047Z,52.90
2018-04-14T17:36:19.374Z,53.20
2018-04-14T17:38:45.868Z,53.10
2018-04-14T17:41:15.406Z,54.40
2018-04-14T17:43:41.915Z,54.20
2018-04-14T17:46:11.724Z,54.60
2018-04-14T17:48:38.916Z,54.50
2018-04-14T17:51:05.512Z,54.30
2018-04-14T17:53:32.107Z,54.40
2018-04-14T17:55:58.676Z,55.10
2018-04-14T17:58:25.553Z,54.90
2018-04-14T18:00:52.870Z,54.40
2018-04-14T18:03:19.678Z,54.40
2018-04-14T18:05:46.406Z,54.40
2018-04-14T18:08:19.713Z,56.00
2018-04-14T18:10:46.223Z,56.30
2018-04-14T18:13:14.333Z,59.80
2018-04-14T18:15:40.788Z,59.80
2018-04-14T18:18:07.285Z,60.20
2018-04-14T18:20:33.827Z,62.30
2018-04-14T18:23:00.362Z,64.40
2018-04-14T18:25:27.114Z,68.30
2018-04-14T18:27:54.926Z,77.50
2018-04-14T18:30:21.427Z,77.50
2018-04-14T18:32:48.007Z,81.20
2018-04-14T18:35:15.302Z,90.50
2018-04-14T18:40:38.084Z,95.30
2018-04-14T18:43:04.507Z,98.00
2018-04-14T18:45:31.952Z,99.30
2018-04-14T18:47:58.517Z,99.90
2018-04-14T18:50:24.965Z,99.90
2018-04-14T18:52:52.096Z,99.90
2018-04-14T18:55:18.716Z,99.90
2018-04-14T18:57:45.206Z,99.90
2018-04-14T19:00:12.387Z,99.90
2018-04-14T19:02:38.907Z,99.90
2018-04-14T19:05:05.443Z,99.90
2018-04-14T19:07:31.924Z,99.90
2018-04-14T19:09:58.383Z,99.90
2018-04-14T19:12:24.863Z,99.90
2018-04-14T19:17:47.033Z,99.90
2018-04-14T19:20:13.535Z,99.90
2018-04-14T19:22:39.970Z,99.90
2018-04-14T19:25:06.685Z,99.90
2018-04-14T19:27:33.906Z,99.90
2018-04-14T19:30:00.308Z,99.90
2018-04-14T19:32:26.862Z,99.90
2018-04-14T19:34:53.379Z,99.90
2018-04-14T19:37:20.048Z,99.90
2018-04-14T19:39:46.548Z,99.90
2018-04-14T19:42:13.077Z,99.90
2018-04-14T19:44:39.639Z,99.90
2018-04-14T19:47:06.127Z,99.90
2018-04-14T19:49:32.645Z,99.90
2018-04-14T19:51:59.983Z,99.90
2018-04-14T19:54:27.483Z,99.90
2018-04-14T19:56:53.947Z,99.90
2018-04-14T19:59:20.501Z,99.90
2018-04-14T20:01:47.068Z,99.90
2018-04-14T20:04:14.336Z,99.90
2018-04-14T20:06:40.851Z,99.90
2018-04-14T20:09:08.169Z,99.90
2018-04-14T20:11:34.642Z,99.90
2018-04-14T20:14:01.164Z,99.90
2018-04-14T20:16:28.530Z,99.90
2018-04-14T20:18:55.012Z,99.90
2018-04-14T20:21:22.349Z,99.90
2018-04-14T20:23:48.869Z,99.90
2018-04-14T20:26:15.429Z,99.90
2018-04-14T20:28:41.905Z,99.90
2018-04-14T20:31:09.264Z,99.90
2018-04-14T20:33:36.489Z,99.90
2018-04-14T20:36:02.985Z,99.90
2018-04-14T20:38:29.498Z,99.90
2018-04-14T20:41:03.756Z,99.90
2018-04-14T20:43:30.969Z,99.90
2018-04-14T20:45:57.549Z,99.90
2018-04-14T20:48:24.060Z,99.90
2018-04-14T20:50:50.647Z,99.90
2018-04-14T20:53:17.197Z,99.90
2018-04-14T20:55:44.392Z,99.90
2018-04-14T20:58:10.916Z,99.90
2018-04-14T21:00:37.407Z,99.90
2018-04-14T21:03:04.015Z,99.90
2018-04-14T21:05:37.655Z,99.90
2018-04-14T21:08:04.910Z,99.90
2018-04-14T21:10:32.124Z,99.90
2018-04-14T21:12:58.849Z,99.90
2018-04-14T21:15:25.329Z,99.90
2018-04-14T21:17:52.656Z,99.90
2018-04-14T21:20:19.300Z,99.90
2018-04-14T21:22:45.853Z,99.90
2018-04-14T21:25:13.052Z,99.90
2018-04-14T21:27:39.632Z,99.90
2018-04-14T21:30:06.129Z,99.90
2018-04-14T21:32:35.227Z,99.90
2018-04-14T21:35:15.201Z,99.90
2018-04-14T21:37:41.776Z,99.90
2018-04-14T21:40:08.343Z,99.90
2018-04-14T21:42:34.858Z,99.90
2018-04-14T21:45:01.392Z,99.90
2018-04-14T21:47:27.922Z,99.90
2018-04-14T21:49:54.414Z,99.90
2018-04-14T21:52:20.873Z,99.90
2018-04-14T21:54:49.636Z,99.90
2018-04-14T21:57:16.122Z,99.90
2018-04-14T21:59:42.629Z,99.90
2018-04-14T22:02:09.822Z,99.90
2018-04-14T22:04:36.661Z,99.90
2018-04-14T22:07:03.120Z,99.90
2018-04-14T22:09:29.670Z,99.90
2018-04-14T22:11:56.149Z,99.90
2018-04-14T22:14:34.020Z,99.90
2018-04-14T22:17:01.265Z,99.90
2018-04-14T22:19:28.493Z,99.90
2018-04-14T22:21:55.014Z,99.90
2018-04-14T22:24:21.472Z,99.90
2018-04-14T22:26:47.922Z,99.90
2018-04-14T22:29:14.416Z,99.90
2018-04-14T22:31:40.929Z,99.90
2018-04-14T22:34:07.376Z,99.90
2018-04-14T22:36:33.992Z,99.90
2018-04-14T22:39:00.473Z,99.90
2018-04-14T22:41:26.974Z,99.90
2018-04-14T22:43:53.411Z,99.90
2018-04-14T22:46:19.972Z,99.90
2018-04-14T22:48:46.546Z,99.90
2018-04-14T22:51:13.824Z,99.90
2018-04-14T22:53:40.333Z,99.90
2018-04-14T22:56:07.654Z,99.90
2018-04-14T22:58:34.166Z,99.90
2018-04-14T23:01:00.661Z,99.90
2018-04-14T23:03:28.294Z,99.90
2018-04-14T23:05:54.820Z,99.90
2018-04-14T23:08:21.285Z,99.90
2018-04-14T23:10:48.644Z,99.90
2018-04-14T23:13:15.863Z,99.90
2018-04-14T23:15:42.341Z,99.90
2018-04-14T23:18:08.882Z,99.90
2018-04-14T23:20:35.351Z,99.90
2018-04-14T23:23:02.572Z,99.90
2018-04-14T23:25:29.057Z,99.90
2018-04-14T23:27:56.398Z,99.90
2018-04-14T23:30:22.898Z,99.90
2018-04-14T23:32:49.509Z,99.90
2018-04-14T23:35:15.970Z,99.90
2018-04-14T23:37:42.555Z,99.90
2018-04-14T23:40:09.032Z,99.90
2018-04-14T23:42:42.538Z,99.90
2018-04-14T23:45:09.005Z,99.90
2018-04-14T23:47:35.736Z,99.90
2018-04-14T23:50:02.217Z,99.90
2018-04-14T23:52:30.195Z,99.90
2018-04-14T23:54:56.663Z,99.90
2018-04-14T23:57:23.257Z,99.90
2018-04-14T23:59:49.733Z,99.90
